Terminal Aerodrome Forecast
Issued by NWS

Home | Current Version | Previous Version | Text Only | Print | Product List | Glossary On
Versions: 1 2 3 4 5 6 7 8 9 10 11 12 13 14 15
000
FTUS41 KBTV 270538
TAFRUT
TAF
KRUT 270538Z 2706/2806 11008KT P6SM OVC045
     FM271000 12012G22KT P6SM OVC035
     FM271400 12016G26KT P6SM BKN018
     FM271800 12013G22KT P6SM BKN035=

USA.gov is the U.S. government's official web portal to all federal, state and local government web resources and services.